Time;durP1;ratioP1;P1;durP2;ratioP2;P2;SDS_P1;SDS_P2;PMS_P1;PMS_P2;Temp;Humidity;BMP_temperature;BMP_pressure;BME280_temperature;BME280_humidity;BME280_pressure;Samples;Min_cycle;Max_cycle;Signal;HPM_P1;HPM_P2
2022/08/08 00:00:07;;;;;;;3.63;3.33;;;;;;;25.03;100.00;152334.00;5092810;28;20184;-61
2022/08/08 00:02:40;;;;;;;3.25;3.00;;;;;;;24.97;100.00;152318.66;5093163;28;20279;-62
2022/08/08 00:05:15;;;;;;;2.88;2.78;;;;;;;24.79;100.00;152273.91;5092653;28;20223;-62
2022/08/08 00:07:52;;;;;;;4.53;3.10;;;;;;;24.85;100.00;152287.97;5093138;28;20229;-61
2022/08/08 00:10:26;;;;;;;3.45;3.13;;;;;;;24.83;100.00;152282.84;5092648;28;20203;-62
2022/08/08 00:13:17;;;;;;;3.08;2.88;;;;;;;24.85;100.00;152287.97;5091371;28;20191;-62
2022/08/08 00:15:51;;;;;;;3.20;3.03;;;;;;;24.62;100.00;152229.19;5092881;28;20540;-62
2022/08/08 00:18:28;;;;;;;3.65;3.38;;;;;;;24.83;100.00;152284.13;5092824;28;20177;-62
2022/08/08 00:20:58;;;;;;;3.85;3.65;;;;;;;24.80;100.00;152276.47;5092392;28;20249;-62
2022/08/08 00:23:35;;;;;;;4.00;3.42;;;;;;;24.74;100.00;152261.13;5092313;28;20189;-62
2022/08/08 00:26:07;;;;;;;3.88;3.58;;;;;;;24.73;100.00;152258.59;5092338;28;20184;-60
2022/08/08 00:28:41;;;;;;;4.13;3.88;;;;;;;24.67;100.00;152241.97;5092524;28;20203;-61
2022/08/08 00:31:18;;;;;;;4.50;4.15;;;;;;;24.52;100.00;152204.97;5092307;28;20339;-62
2022/08/08 00:35:09;;;;;;;5.78;5.38;;;;;;;24.63;100.00;152233.03;5092110;28;20183;-62
2022/08/08 00:36:49;;;;;;;9.55;5.85;;;;;;;24.52;100.00;152204.97;5091830;28;20206;-62
2022/08/08 00:39:26;;;;;;;6.45;5.55;;;;;;;24.34;100.00;152158.97;5092047;28;20184;-62
2022/08/08 00:42:39;;;;;;;8.32;6.13;;;;;;;24.68;100.00;152245.81;5091665;28;20188;-62
2022/08/08 00:45:44;;;;;;;6.60;5.82;;;;;;;24.70;100.00;152249.63;5092348;28;20654;-63
2022/08/08 00:48:48;;;;;;;6.78;6.22;;;;;;;24.63;100.00;152233.03;5091742;28;20253;-62
2022/08/08 00:51:52;;;;;;;7.28;6.78;;;;;;;24.67;100.00;152243.25;5091562;28;20241;-61
2022/08/08 00:54:58;;;;;;;7.18;6.47;;;;;;;24.59;100.00;152222.81;5091925;28;20184;-62
2022/08/08 00:58:04;;;;;;;7.60;7.13;;;;;;;24.64;100.00;152235.59;5057390;28;20192;-62
2022/08/08 01:00:42;;;;;;;7.75;7.15;;;;;;;24.33;100.00;152156.41;5091427;28;20183;-62
2022/08/08 01:03:38;;;;;;;7.38;6.75;;;;;;;24.67;100.00;152243.25;5091567;28;20241;-61
2022/08/08 01:06:39;;;;;;;7.65;7.15;;;;;;;24.47;100.00;152192.19;5091317;28;20180;-62
2022/08/08 01:09:43;;;;;;;7.85;7.35;;;;;;;24.65;100.00;152238.16;5091570;28;20207;-62
2022/08/08 01:12:58;;;;;;;7.55;6.90;;;;;;;24.62;100.00;152230.47;5091505;28;20183;-62
2022/08/08 01:16:04;;;;;;;8.13;7.32;;;;;;;24.52;100.00;152204.97;5091476;28;20224;-61
2022/08/08 01:19:20;;;;;;;7.70;7.30;;;;;;;24.47;100.00;152192.19;5091696;28;20203;-62
2022/08/08 01:22:32;;;;;;;8.38;7.68;;;;;;;24.40;100.00;152174.31;5029286;28;20205;-61
2022/08/08 01:25:31;;;;;;;8.50;7.68;;;;;;;24.38;100.00;152169.19;5090982;28;20188;-62
2022/08/08 01:28:16;;;;;;;7.75;7.20;;;;;;;24.36;100.00;152164.06;5091439;28;20257;-61
2022/08/08 01:31:28;;;;;;;8.93;8.10;;;;;;;24.26;100.00;152138.56;5091937;28;20437;-62
2022/08/08 01:34:47;;;;;;;9.85;7.88;;;;;;;24.26;100.00;152138.56;5055781;28;20199;-62
2022/08/08 01:37:50;;;;;;;8.18;7.78;;;;;;;24.18;100.00;152118.13;5091589;28;20257;-62
2022/08/08 01:40:27;;;;;;;9.43;8.07;;;;;;;24.17;100.00;152116.84;5089839;28;20195;-62
2022/08/08 01:43:06;;;;;;;8.95;8.13;;;;;;;24.11;100.00;152101.47;5090949;28;20191;-62
2022/08/08 01:45:48;;;;;;;8.18;7.70;;;;;;;24.17;100.00;152115.56;5091402;28;20654;-61
2022/08/08 01:48:26;;;;;;;9.18;8.50;;;;;;;24.14;100.00;152110.38;5090938;28;20203;-61
2022/08/08 01:51:12;;;;;;;8.30;7.72;;;;;;;23.98;100.00;152069.53;5090873;28;20184;-61
2022/08/08 01:53:49;;;;;;;8.50;8.10;;;;;;;23.87;100.00;148932.16;5091093;28;20188;-62
2022/08/08 01:56:26;;;;;;;9.15;8.48;;;;;;;23.88;100.00;139444.78;5094724;28;20279;-61
2022/08/08 01:59:10;;;;;;;8.85;8.13;;;;;;;24.01;100.00;139134.03;5094823;28;20219;-61
2022/08/08 02:01:55;;;;;;;8.57;8.15;;;;;;;23.96;100.00;128936.91;5094985;28;20183;-61
2022/08/08 02:04:33;;;;;;;8.98;8.07;;;;;;;23.87;100.00;121807.09;5094942;28;20707;-61
2022/08/08 02:07:05;;;;;;;8.07;7.78;;;;;;;23.87;100.00;119100.78;5094971;28;20279;-61
2022/08/08 02:09:44;;;;;;;8.07;7.68;;;;;;;23.83;100.00;122137.19;5094604;28;20211;-61
2022/08/08 02:12:21;;;;;;;8.82;8.23;;;;;;;23.92;100.00;123846.84;5094551;28;20194;-62
2022/08/08 02:14:56;;;;;;;8.98;8.57;;;;;;;23.85;100.00;116394.59;5094736;28;20228;-62
2022/08/08 02:17:28;;;;;;;8.40;8.00;;;;;;;23.92;100.00;117084.00;5094386;28;20191;-61
2022/08/08 02:20:01;;;;;;;7.70;7.28;;;;;;;23.78;100.00;115367.88;5094383;28;20184;-61
2022/08/08 02:22:37;;;;;;;8.43;7.88;;;;;;;23.79;100.00;107612.81;5094613;28;20576;-61
2022/08/08 02:25:18;;;;;;;8.10;7.55;;;;;;;23.73;100.00;103898.50;5094233;28;20183;-61
2022/08/08 02:27:53;;;;;;;8.45;7.82;;;;;;;23.76;100.00;104576.88;5094306;28;20294;-62
2022/08/08 02:30:22;;;;;;;8.95;8.25;;;;;;;23.73;100.00;102889.16;5094188;28;20184;-62
2022/08/08 02:33:05;;;;;;;8.13;7.43;;;;;;;23.71;100.00;106923.78;5094252;28;20216;-62
2022/08/08 02:35:54;;;;;;;7.88;7.57;;;;;;;23.72;100.00;100533.47;5094342;28;20188;-62
2022/08/08 02:38:53;;;;;;;7.95;7.22;;;;;;;23.64;100.00;98504.59;5094179;28;20211;-62
2022/08/08 02:41:51;;;;;;;8.23;7.65;;;;;;;23.57;100.00;91110.44;5093881;28;20184;-61
2022/08/08 02:44:51;;;;;;;7.80;7.50;;;;;;;23.56;100.00;93791.28;5094292;28;20200;-61
2022/08/08 02:47:56;;;;;;;7.57;6.97;;;;;;;23.58;100.00;95137.28;5093747;28;20184;-61
2022/08/08 02:50:58;;;;;;;7.32;6.75;;;;;;;23.60;100.00;97154.56;5071788;28;20207;-62
2022/08/08 02:54:00;;;;;;;7.68;7.38;;;;;;;23.48;100.00;91432.50;5068166;28;20200;-61
2022/08/08 02:56:56;;;;;;;8.38;7.53;;;;;;;23.46;100.00;85736.59;5093763;28;20263;-62
2022/08/08 02:59:55;;;;;;;7.63;7.32;;;;;;;23.44;100.00;87741.75;5093663;28;20180;-63
2022/08/08 03:02:52;;;;;;;7.57;7.28;;;;;;;23.38;100.00;84720.69;5093605;28;20290;-62
2022/08/08 03:06:00;;;;;;;8.02;7.05;;;;;;;23.38;100.00;81712.63;5059754;28;20570;-62
2022/08/08 03:09:04;;;;;;;7.40;6.78;;;;;;;23.16;100.00;76342.28;5093615;28;20200;-62
2022/08/08 03:12:06;;;;;;;6.38;6.18;;;;;;;23.31;100.00;80700.00;5093822;28;20557;-62
2022/08/08 03:14:51;;;;;;;6.65;6.35;;;;;;;23.29;100.00;81366.06;5093401;28;20227;-61
2022/08/08 03:17:23;;;;;;;6.95;6.50;;;;;;;23.32;100.00;81036.13;5093336;28;20262;-61
2022/08/08 03:20:04;;;;;;;7.05;6.45;;;;;;;23.31;100.00;83708.25;5093448;28;20555;-63
2022/08/08 03:22:31;;;;;;;7.15;6.50;;;;;;;23.34;100.00;81706.41;5093561;28;20562;-61
2022/08/08 03:25:00;;;;;;;6.90;6.35;;;;;;;23.25;100.00;81694.63;5093261;28;20192;-62
2022/08/08 03:27:35;;;;;;;6.32;6.03;;;;;;;23.18;100.00;80683.56;5093307;28;20261;-62
2022/08/08 03:30:07;;;;;;;6.75;6.32;;;;;;;23.20;100.00;83024.91;5093504;28;20600;-62
2022/08/08 03:35:22;;;;;;;6.43;6.13;;;;;;;23.21;100.00;86034.72;5093347;28;20669;-62
2022/08/08 03:37:49;;;;;;;6.53;5.93;;;;;;;23.34;100.00;91075.00;5093066;28;20188;-60
2022/08/08 03:40:19;;;;;;;6.25;5.85;;;;;;;23.53;100.00;103191.66;5092857;28;20184;-61
2022/08/08 03:42:47;;;;;;;5.88;5.47;;;;;;;23.52;100.00;109921.81;5092960;28;20564;-61
2022/08/08 03:45:17;;;;;;;6.47;5.82;;;;;;;23.51;100.00;124100.81;5092999;28;20192;-62
2022/08/08 03:47:44;;;;;;;6.38;5.97;;;;;;;23.90;100.00;149742.81;5092744;28;20263;-62
2022/08/08 03:50:20;;;;;;;7.63;5.68;;;;;;;23.83;100.00;151686.19;5093189;28;20185;-62
2022/08/08 03:52:47;;;;;;;14.85;6.07;;;;;;;24.04;100.00;152084.88;5092744;28;20233;-61
2022/08/08 03:55:18;;;;;;;6.22;5.63;;;;;;;24.08;100.00;152095.09;5092890;28;20187;-62
2022/08/08 03:57:46;;;;;;;7.15;6.82;;;;;;;24.16;100.00;152114.28;5092869;28;20607;-61
2022/08/08 04:00:15;;;;;;;6.35;5.95;;;;;;;24.08;100.00;152093.81;5092497;28;20180;-62
2022/08/08 04:02:43;;;;;;;8.27;5.57;;;;;;;24.12;100.00;152105.31;5092794;28;20180;-62
2022/08/08 04:05:11;;;;;;;5.70;5.40;;;;;;;24.21;100.00;152125.78;5092444;28;20254;-63
2022/08/08 04:07:39;;;;;;;5.70;5.32;;;;;;;24.41;100.00;152176.84;5092473;28;20187;-62
2022/08/08 04:10:08;;;;;;;5.40;5.00;;;;;;;24.52;100.00;152206.25;5092752;28;20184;-61
2022/08/08 04:12:37;;;;;;;5.95;5.55;;;;;;;24.54;100.00;152211.31;5092601;28;20188;-61
2022/08/08 04:15:05;;;;;;;5.43;5.13;;;;;;;24.69;100.00;152248.38;5092134;28;20603;-61
2022/08/08 04:17:32;;;;;;;6.10;5.70;;;;;;;24.81;100.00;152279.03;5091627;28;20184;-63
2022/08/08 04:20:00;;;;;;;5.47;5.00;;;;;;;24.98;100.00;152321.22;5092483;28;20184;-62
2022/08/08 04:22:27;;;;;;;6.93;5.53;;;;;;;25.09;100.00;152349.31;5092498;28;20188;-61
2022/08/08 04:24:54;;;;;;;6.05;5.55;;;;;;;24.97;100.00;152319.94;5092659;28;20234;-62
2022/08/08 04:27:22;;;;;;;5.45;5.00;;;;;;;25.18;100.00;152372.31;5092729;28;20188;-62
2022/08/08 04:29:51;;;;;;;6.10;5.53;;;;;;;25.26;100.00;152391.47;5092085;28;20204;-62
2022/08/08 04:32:18;;;;;;;6.82;5.47;;;;;;;25.30;100.00;152401.69;5092557;28;20217;-63
2022/08/08 04:34:46;;;;;;;10.85;5.28;;;;;;;25.57;100.00;152470.75;5092239;28;20202;-63
2022/08/08 04:37:13;;;;;;;5.43;5.13;;;;;;;25.62;100.00;152483.56;5092434;28;20607;-62
2022/08/08 04:39:40;;;;;;;5.78;5.32;;;;;;;25.64;100.00;152488.63;5092513;28;20180;-62
2022/08/08 04:42:09;;;;;;;7.43;5.85;;;;;;;25.70;100.00;152504.00;5092258;28;20230;-62
2022/08/08 04:44:36;;;;;;;5.20;5.00;;;;;;;25.57;100.00;152470.75;5092602;28;20639;-62
2022/08/08 04:47:05;;;;;;;5.38;4.93;;;;;;;26.01;100.00;152581.97;5091954;28;20184;-62
2022/08/08 04:49:32;;;;;;;5.80;5.28;;;;;;;26.13;100.00;152611.38;5092270;28;20215;-62
2022/08/08 04:51:59;;;;;;;5.43;5.22;;;;;;;25.99;100.00;152575.56;5092141;28;20554;-62
2022/08/08 04:54:26;;;;;;;6.93;5.50;;;;;;;26.26;100.00;152644.66;5092456;28;20191;-62
2022/08/08 04:56:53;;;;;;;5.30;4.95;;;;;;;26.31;100.00;152658.69;5091881;28;20218;-63
2022/08/08 04:59:20;;;;;;;7.07;5.97;;;;;;;26.48;100.00;152700.88;5092261;28;20608;-62
2022/08/08 05:01:47;;;;;;;6.15;5.40;;;;;;;26.72;100.00;152762.28;5091829;28;20223;-62
2022/08/08 05:04:16;;;;;;;12.40;5.40;;;;;;;26.93;100.00;152813.47;5092028;28;20184;-62
2022/08/08 05:06:43;;;;;;;7.57;5.38;;;;;;;27.20;100.00;152882.56;5091843;28;20184;-61
2022/08/08 05:09:10;;;;;;;5.45;5.00;;;;;;;27.10;100.00;152856.97;5091927;28;20261;-61
2022/08/08 05:11:37;;;;;;;5.75;5.22;;;;;;;27.33;100.00;152915.78;5092035;28;20261;-62
2022/08/08 05:14:04;;;;;;;5.35;4.93;;;;;;;27.51;100.00;152960.63;5091767;28;20253;-61
2022/08/08 05:16:32;;;;;;;5.30;4.90;;;;;;;27.28;100.00;152903.03;5091760;28;20234;-62
2022/08/08 05:18:59;;;;;;;6.22;4.60;;;;;;;27.43;100.00;152941.41;5091652;28;20184;-61
2022/08/08 05:21:28;;;;;;;5.18;4.93;;;;;;;27.84;100.00;153043.84;5091618;28;20533;-61
2022/08/08 05:23:56;;;;;;;5.65;5.05;;;;;;;27.67;100.00;153001.56;5090632;28;20191;-62
2022/08/08 05:26:23;;;;;;;5.25;4.95;;;;;;;27.60;100.00;152983.66;5091582;28;20222;-61
2022/08/08 05:28:50;;;;;;;5.22;4.70;;;;;;;27.86;100.00;153048.94;5094386;28;20227;-62
2022/08/08 05:31:17;;;;;;;6.88;5.10;;;;;;;28.26;100.00;153150.13;5096622;28;20184;-59
2022/08/08 05:33:44;;;;;;;4.53;4.25;;;;;;;28.15;100.00;153123.22;5098046;28;20191;-62
2022/08/08 05:36:12;;;;;;;4.90;4.50;;;;;;;28.57;100.00;153229.47;5095727;28;20191;-60
2022/08/08 05:38:47;;;;;;;4.80;4.43;;;;;;;29.21;100.00;153392.16;5096165;28;20184;-61
2022/08/08 05:41:17;;;;;;;10.60;4.25;;;;;;;29.32;100.00;153419.13;5095966;28;20192;-61
2022/08/08 05:43:47;;;;;;;4.75;4.30;;;;;;;29.43;100.00;153447.28;5095573;28;20199;-62
2022/08/08 05:46:15;;;;;;;4.45;4.15;;;;;;;29.10;100.00;153364.00;5094081;28;20569;-63
2022/08/08 05:48:44;;;;;;;4.47;4.05;;;;;;;29.67;100.00;153507.47;5095586;28;20612;-62
2022/08/08 05:51:11;;;;;;;3.85;3.75;;;;;;;30.27;100.00;153661.31;5095528;28;20200;-62
2022/08/08 05:53:38;;;;;;;4.95;4.03;;;;;;;31.43;100.00;153953.72;5095228;28;20324;-62
2022/08/08 05:56:08;;;;;;;4.47;3.88;;;;;;;31.96;100.00;154088.44;5095194;28;20650;-62
2022/08/08 05:58:40;;;;;;;5.80;3.60;;;;;;;31.20;100.00;153897.28;5095513;28;20187;-61
2022/08/08 06:01:11;;;;;;;4.38;4.18;;;;;;;31.09;100.00;153867.81;5095237;28;20696;-62
2022/08/08 06:03:41;;;;;;;3.80;3.60;;;;;;;30.89;100.00;153817.78;5094959;28;20184;-63
2022/08/08 06:06:09;;;;;;;4.18;3.78;;;;;;;29.98;100.00;153587.00;5095078;28;20185;-62
2022/08/08 06:08:38;;;;;;;4.63;4.28;;;;;;;30.03;100.00;153599.81;5094990;28;20180;-61
2022/08/08 06:11:06;;;;;;;4.88;4.07;;;;;;;30.04;100.00;153602.38;5094920;28;20631;-62
2022/08/08 06:13:33;;;;;;;8.20;4.45;;;;;;;29.97;100.00;153584.41;5094847;28;20613;-60
2022/08/08 06:16:01;;;;;;;7.82;3.92;;;;;;;29.42;100.00;153446.00;5094570;28;20245;-62
2022/08/08 06:18:28;;;;;;;5.63;4.00;;;;;;;29.93;100.00;153575.44;5094954;28;20184;-62
2022/08/08 06:20:58;;;;;;;4.25;3.95;;;;;;;30.02;100.00;153595.94;5094423;28;20187;-62
2022/08/08 06:23:26;;;;;;;4.38;3.88;;;;;;;29.59;100.00;153487.00;5094802;28;20185;-62
2022/08/08 06:26:05;;;;;;;4.90;4.35;;;;;;;30.04;100.00;153602.38;5094824;28;20631;-61
2022/08/08 06:28:38;;;;;;;5.20;3.95;;;;;;;30.07;100.00;153610.06;5094846;28;20286;-62
2022/08/08 06:31:08;;;;;;;4.30;4.00;;;;;;;30.55;100.00;153730.59;5094915;28;20240;-62
2022/08/08 06:33:41;;;;;;;4.45;3.92;;;;;;;31.27;100.00;153914.00;5094806;28;20271;-61
2022/08/08 06:36:11;;;;;;;4.13;3.50;;;;;;;31.35;100.00;153933.22;5094489;28;20185;-63
2022/08/08 06:38:43;;;;;;;5.03;3.90;;;;;;;31.37;100.00;153939.63;5094705;28;20184;-62
2022/08/08 06:41:14;;;;;;;4.20;3.45;;;;;;;31.22;100.00;153902.44;5093637;28;20554;-63
2022/08/08 06:43:44;;;;;;;3.88;3.72;;;;;;;30.21;100.00;153644.66;5094527;28;20721;-62
2022/08/08 06:46:12;;;;;;;7.28;6.60;;;;;;;30.65;100.00;153756.22;5094273;28;20185;-61
2022/08/08 06:48:39;;;;;;;4.18;3.83;;;;;;;31.00;100.00;153846.03;5095300;28;20622;-61
2022/08/08 06:51:06;;;;;;;4.88;4.22;;;;;;;31.89;100.00;154071.78;5094428;28;20275;-61
2022/08/08 06:53:35;;;;;;;11.25;3.80;;;;;;;31.99;100.00;154097.47;5094432;28;20590;-62
2022/08/08 06:56:02;;;;;;;4.28;3.88;;;;;;;31.71;100.00;154026.88;5094227;28;20237;-62
2022/08/08 06:58:29;;;;;;;4.80;3.63;;;;;;;31.97;100.00;154091.03;5094450;28;20268;-62
2022/08/08 07:01:01;;;;;;;3.70;3.60;;;;;;;31.91;100.00;154076.91;5094349;28;20253;-62
2022/08/08 07:03:40;;;;;;;5.05;4.00;;;;;;;31.74;100.00;154033.34;5094199;28;20184;-63
2022/08/08 07:06:10;;;;;;;4.53;4.22;;;;;;;31.57;100.00;153989.72;5093731;28;20684;-62
2022/08/08 07:08:39;;;;;;;4.00;3.75;;;;;;;31.68;100.00;154019.19;5093842;28;20204;-60
2022/08/08 07:11:08;;;;;;;4.00;3.60;;;;;;;31.79;100.00;154044.81;5093600;28;20600;-63
2022/08/08 07:13:40;;;;;;;4.30;3.83;;;;;;;31.99;100.00;154096.19;5093830;28;20278;-62
2022/08/08 07:16:21;;;;;;;4.13;3.60;;;;;;;31.99;100.00;154097.47;5094157;28;20643;-62
2022/08/08 07:19:05;;;;;;;3.42;3.30;;;;;;;32.11;96.53;154127.00;5094086;28;20212;-61
2022/08/08 07:21:40;;;;;;;4.50;3.63;;;;;;;32.37;95.00;154192.47;5092396;28;20191;-62
2022/08/08 07:24:12;;;;;;;5.88;4.00;;;;;;;32.69;93.62;154274.63;5094240;28;20196;-63
2022/08/08 07:26:41;;;;;;;3.67;3.42;;;;;;;32.33;92.88;154182.19;5094883;28;20286;-62
2022/08/08 07:29:08;;;;;;;7.00;4.28;;;;;;;32.09;92.40;154123.16;5093745;28;20200;-63
2022/08/08 07:31:37;;;;;;;3.55;3.28;;;;;;;31.74;94.72;154034.56;5094083;28;20184;-63
2022/08/08 07:34:05;;;;;;;4.00;3.38;;;;;;;31.17;94.54;153889.63;5093616;28;20627;-63
2022/08/08 07:36:33;;;;;;;24.83;4.07;;;;;;;31.80;94.39;154048.69;5093193;28;20184;-62
2022/08/08 07:39:02;;;;;;;3.53;3.35;;;;;;;32.41;94.17;154202.72;5093056;28;20198;-61
2022/08/08 07:41:30;;;;;;;3.53;3.33;;;;;;;32.72;90.93;154281.06;5093134;28;20191;-60
2022/08/08 07:43:58;;;;;;;7.75;3.42;;;;;;;32.41;91.25;154202.72;5093500;28;20595;-62
2022/08/08 07:46:25;;;;;;;3.83;3.53;;;;;;;32.92;88.22;154333.69;5093569;28;20630;-62
2022/08/08 07:48:54;;;;;;;3.97;3.67;;;;;;;33.56;87.42;154495.50;5093904;28;20192;-61
2022/08/08 07:51:22;;;;;;;3.30;3.00;;;;;;;33.38;77.40;154449.25;5092775;28;20196;-61
2022/08/08 07:54:00;;;;;;;3.25;2.97;;;;;;;33.22;76.29;154409.47;5092942;28;20631;-61
2022/08/08 07:56:31;;;;;;;3.13;2.95;;;;;;;32.73;71.36;154284.88;5093224;28;20266;-62
2022/08/08 07:58:59;;;;;;;3.03;2.80;;;;;;;32.72;74.98;154281.06;5093076;28;20192;-62
2022/08/08 08:01:32;;;;;;;3.90;3.55;;;;;;;32.51;74.17;154228.34;5092830;28;20196;-62
2022/08/08 08:04:04;;;;;;;3.92;3.28;;;;;;;32.63;74.71;154260.50;5092610;28;20223;-62
2022/08/08 08:06:33;;;;;;;5.75;3.15;;;;;;;32.35;81.64;154188.59;5092924;28;20233;-62
2022/08/08 08:09:09;;;;;;;3.55;3.45;;;;;;;31.96;80.43;154089.72;5093118;28;20567;-63
2022/08/08 08:11:41;;;;;;;7.82;3.55;;;;;;;32.58;82.04;154247.66;5092495;28;20196;-61
2022/08/08 08:14:30;;;;;;;4.90;2.85;;;;;;;33.29;76.00;154426.16;5101187;27;1442843;-62
2022/08/08 08:16:58;;;;;;;3.17;2.97;;;;;;;33.73;73.06;154539.22;5130100;28;20601;-62
2022/08/08 08:19:31;;;;;;;3.33;3.03;;;;;;;34.36;69.45;154699.81;5129971;28;20319;-62
2022/08/08 08:21:58;;;;;;;3.20;2.92;;;;;;;33.40;67.32;154455.66;5129792;28;20182;-62
2022/08/08 08:24:25;;;;;;;4.05;2.95;;;;;;;33.20;71.17;154403.03;5130402;28;20607;-63
2022/08/08 08:26:52;;;;;;;3.25;3.05;;;;;;;33.86;69.71;154572.56;5130309;28;20247;-62
2022/08/08 08:29:20;;;;;;;3.38;3.00;;;;;;;34.26;68.81;154674.09;5129914;28;20183;-61
2022/08/08 08:31:48;;;;;;;2.92;2.72;;;;;;;34.50;65.25;154733.22;5130311;28;20186;-61
2022/08/08 08:34:15;;;;;;;2.90;2.80;;;;;;;34.19;64.09;154654.84;5129934;28;20599;-61
2022/08/08 08:36:43;;;;;;;4.85;3.17;;;;;;;34.31;68.47;154686.97;5129778;28;20191;-62
2022/08/08 08:39:10;;;;;;;3.03;2.92;;;;;;;34.28;62.44;154679.28;5129561;28;20278;-61
2022/08/08 08:41:39;;;;;;;3.72;2.60;;;;;;;34.53;59.30;154742.22;5129306;28;20190;-62
2022/08/08 08:44:07;;;;;;;3.58;2.35;;;;;;;34.40;55.93;154710.09;5129438;28;20179;-62
2022/08/08 08:46:35;;;;;;;2.90;2.60;;;;;;;33.60;57.25;154504.47;5129586;28;20187;-62
2022/08/08 08:49:04;;;;;;;5.88;2.65;;;;;;;33.19;55.52;154400.44;5129112;28;20270;-63
2022/08/08 08:51:35;;;;;;;3.22;2.65;;;;;;;33.30;55.44;154430.00;5129624;28;20205;-62
2022/08/08 08:54:03;;;;;;;3.22;2.40;;;;;;;33.46;56.73;154469.81;5129177;28;20239;-62
2022/08/08 08:56:34;;;;;;;2.47;2.38;;;;;;;33.39;59.17;154451.84;5129335;28;20178;-62
2022/08/08 08:59:06;;;;;;;3.53;2.78;;;;;;;33.93;54.98;154590.56;5129386;28;20305;-62
2022/08/08 09:01:35;;;;;;;2.53;2.42;;;;;;;33.72;55.35;154536.63;5128957;28;20247;-61
2022/08/08 09:04:08;;;;;;;4.97;2.63;;;;;;;33.47;54.21;154472.38;5128988;28;20179;-61
2022/08/08 09:06:39;;;;;;;2.58;2.47;;;;;;;33.67;53.19;154523.78;5129284;28;20674;-62
2022/08/08 09:09:09;;;;;;;8.27;2.63;;;;;;;34.01;51.64;154608.53;5128843;28;20262;-57
2022/08/08 09:11:38;;;;;;;2.58;2.38;;;;;;;33.88;50.89;154577.72;5130349;28;20208;-63
2022/08/08 09:14:09;;;;;;;2.47;2.38;;;;;;;33.65;53.01;154518.69;5129955;27;20234;-62
2022/08/08 09:16:37;;;;;;;3.15;2.53;;;;;;;33.81;52.32;154559.75;5110701;28;20656;-62
2022/08/08 09:19:05;;;;;;;8.57;2.85;;;;;;;33.84;53.52;154566.16;5128542;28;20190;-61
2022/08/08 09:21:34;;;;;;;3.47;2.90;;;;;;;34.05;51.17;154618.81;5128388;28;20248;-62
2022/08/08 09:24:02;;;;;;;2.70;2.50;;;;;;;33.66;51.30;154521.22;5123925;28;20656;-61
2022/08/08 09:26:41;;;;;;;3.33;2.53;;;;;;;34.02;53.27;154612.41;5114686;28;20187;-62
2022/08/08 09:29:13;;;;;;;3.03;2.20;;;;;;;34.53;50.66;154742.22;5114690;28;20252;-61
2022/08/08 09:31:52;;;;;;;4.20;2.40;;;;;;;34.67;51.72;154778.19;5096511;28;20215;-61
2022/08/08 09:34:22;;;;;;;3.20;2.88;;;;;;;34.35;51.83;154695.94;5114868;28;20252;-63
2022/08/08 09:36:52;;;;;;;2.75;2.28;;;;;;;33.76;49.10;154546.91;5114637;28;20183;-62
2022/08/08 09:39:21;;;;;;;3.00;2.80;;;;;;;34.12;51.02;154638.06;5114867;28;20187;-62
2022/08/08 09:42:01;;;;;;;2.70;2.50;;;;;;;34.37;51.11;154702.34;5114416;28;20191;-62
2022/08/08 09:44:39;;;;;;;2.90;2.70;;;;;;;33.58;52.82;154500.63;5114476;28;20292;-62
2022/08/08 09:47:08;;;;;;;4.70;2.83;;;;;;;33.68;53.78;154525.09;5114239;28;20183;-62
2022/08/08 09:49:39;;;;;;;3.17;2.88;;;;;;;33.89;54.71;154580.31;5114139;28;20266;-62
2022/08/08 09:52:08;;;;;;;4.95;2.70;;;;;;;34.40;51.49;154708.81;5114221;28;20188;-62
2022/08/08 09:54:42;;;;;;;8.75;3.10;;;;;;;34.76;51.48;154800.03;5114551;28;20604;-62
2022/08/08 09:57:10;;;;;;;4.78;3.00;;;;;;;34.71;48.83;154788.47;5114019;28;20216;-62
2022/08/08 09:59:42;;;;;;;4.28;3.15;;;;;;;35.14;46.26;154896.44;5114237;28;20183;-61
2022/08/08 10:02:19;;;;;;;3.72;2.75;;;;;;;34.63;46.07;154766.63;5114106;28;20213;-61
2022/08/08 10:04:50;;;;;;;3.20;2.90;;;;;;;34.50;46.54;154734.47;5114097;28;20201;-63
2022/08/08 10:07:18;;;;;;;3.25;2.88;;;;;;;34.65;47.99;154773.09;5113875;28;20233;-62
2022/08/08 10:09:51;;;;;;;4.07;2.50;;;;;;;34.87;46.63;154827.06;5113656;28;20240;-62
2022/08/08 10:12:18;;;;;;;3.72;2.40;;;;;;;34.53;46.38;154742.22;5113720;28;20380;-61
2022/08/08 10:14:45;;;;;;;3.83;2.85;;;;;;;34.32;43.72;154688.25;5095849;28;20199;-62
2022/08/08 10:17:12;;;;;;;2.60;2.40;;;;;;;33.91;44.16;154584.13;5114062;28;20696;-61
2022/08/08 10:19:41;;;;;;;2.30;2.25;;;;;;;33.91;45.98;154585.41;5113706;28;20236;-61
2022/08/08 10:22:10;;;;;;;3.33;2.72;;;;;;;34.35;44.25;154697.25;5095923;28;20199;-62
2022/08/08 10:24:46;;;;;;;6.25;2.72;;;;;;;34.44;44.35;154719.06;5113870;28;20196;-62
2022/08/08 10:27:15;;;;;;;2.60;2.47;;;;;;;34.47;42.47;154726.78;5113749;28;20656;-61
2022/08/08 10:29:52;;;;;;;2.55;2.45;;;;;;;34.15;44.30;154645.81;5113391;28;20179;-62
2022/08/08 10:32:34;;;;;;;3.17;2.42;;;;;;;33.99;43.76;154603.44;5113802;28;20212;-64
2022/08/08 10:35:03;;;;;;;3.20;2.17;;;;;;;33.56;44.28;154494.22;5113163;28;20194;-62
2022/08/08 10:37:33;;;;;;;4.25;2.47;;;;;;;33.71;45.90;154534.06;5112999;28;20562;-62
2022/08/08 10:40:02;;;;;;;2.83;2.60;;;;;;;33.50;47.58;154480.06;5113533;28;20190;-62
2022/08/08 10:42:33;;;;;;;4.75;2.40;;;;;;;33.43;47.10;154463.41;5113514;28;20240;-62
2022/08/08 10:45:02;;;;;;;12.65;2.47;;;;;;;33.42;44.04;154460.81;5114658;28;20187;-63
2022/08/08 10:47:29;;;;;;;2.53;2.42;;;;;;;33.47;44.49;154473.69;5113840;28;20183;-62
2022/08/08 10:49:58;;;;;;;2.35;2.22;;;;;;;33.60;43.86;154505.78;5114629;28;20195;-62
2022/08/08 10:52:27;;;;;;;2.03;1.92;;;;;;;33.67;40.94;154523.78;5113491;28;20578;-63
2022/08/08 10:54:59;;;;;;;3.40;2.72;;;;;;;33.47;41.60;154473.69;5115180;28;20237;-63
2022/08/08 10:57:26;;;;;;;3.00;1.98;;;;;;;33.41;41.46;154456.97;5114813;28;20244;-62
2022/08/08 10:59:55;;;;;;;2.92;2.40;;;;;;;33.27;43.19;154422.28;5113553;28;20179;-62
2022/08/08 11:02:24;;;;;;;2.95;2.58;;;;;;;33.37;43.36;154447.97;5113547;28;20183;-63
2022/08/08 11:04:51;;;;;;;2.25;2.15;;;;;;;33.37;44.37;154447.97;5095112;28;20236;-62
2022/08/08 11:07:29;;;;;;;2.50;2.30;;;;;;;33.72;41.85;154536.63;5113535;28;20244;-62
2022/08/08 11:10:01;;;;;;;3.30;2.20;;;;;;;33.59;41.33;154501.91;5113624;28;20535;-61
2022/08/08 11:12:28;;;;;;;2.78;2.30;;;;;;;33.56;41.68;154495.50;5113031;28;20353;-61
2022/08/08 11:14:58;;;;;;;1.95;1.85;;;;;;;33.58;41.13;154499.31;5112865;28;20207;-62
2022/08/08 11:17:29;;;;;;;3.90;2.50;;;;;;;33.47;43.13;154472.38;5113007;28;20614;-63
2022/08/08 11:19:56;;;;;;;2.40;2.30;;;;;;;33.66;42.55;154521.22;5094490;28;20195;-63
2022/08/08 11:22:25;;;;;;;2.92;2.28;;;;;;;33.62;42.03;154509.59;5112853;28;20233;-61
2022/08/08 11:24:57;;;;;;;2.45;2.17;;;;;;;33.57;42.06;154498.03;5112912;28;20690;-62
2022/08/08 11:27:38;;;;;;;5.85;2.15;;;;;;;33.56;42.49;154495.50;5112840;28;20240;-62
2022/08/08 11:30:07;;;;;;;2.38;2.05;;;;;;;33.46;44.05;154469.81;5112767;28;20630;-62
2022/08/08 11:32:38;;;;;;;3.70;2.47;;;;;;;33.54;44.92;154490.34;5112635;28;20237;-63
2022/08/08 11:35:09;;;;;;;5.22;2.60;;;;;;;33.78;43.55;154550.78;5112531;28;20598;-61
2022/08/08 11:37:38;;;;;;;2.58;2.10;;;;;;;33.70;42.46;154530.19;5112196;28;20183;-62
2022/08/08 11:40:07;;;;;;;3.22;2.25;;;;;;;33.48;43.19;154476.22;5112125;28;20179;-62
2022/08/08 11:42:37;;;;;;;4.55;2.30;;;;;;;33.55;42.90;154492.94;5112164;28;20217;-62
2022/08/08 11:45:07;;;;;;;3.97;2.90;;;;;;;33.60;43.78;154505.78;5112271;28;20187;-63
2022/08/08 11:47:35;;;;;;;6.07;2.50;;;;;;;33.49;44.24;154477.50;5111768;28;20183;-62
2022/08/08 11:50:05;;;;;;;2.50;2.40;;;;;;;33.43;44.10;154463.41;5112031;28;20245;-62
2022/08/08 11:52:32;;;;;;;2.47;2.20;;;;;;;33.40;44.10;154454.38;5111939;28;20209;-62
2022/08/08 11:54:59;;;;;;;2.38;2.22;;;;;;;33.00;44.83;154354.22;5111843;28;20202;-62
2022/08/08 11:57:29;;;;;;;2.42;2.30;;;;;;;33.32;43.03;154435.13;5112353;28;20248;-63